sensor_id;sensor_type;location;lat;lon;timestamp;pressure;altitude;pressure_sealevel;temperature;humidity
58239;BME280;44037;55.638;37.356;2023-12-22T00:00:05;96719.56;;;-0.18;80.52
58239;BME280;44037;55.638;37.356;2023-12-22T00:02:34;96717.22;;;-0.28;80.58
58239;BME280;44037;55.638;37.356;2023-12-22T00:05:02;96728.34;;;-0.32;80.82
58239;BME280;44037;55.638;37.356;2023-12-22T00:07:30;96727.13;;;-0.45;80.83
58239;BME280;44037;55.638;37.356;2023-12-22T00:09:57;96722.13;;;-0.40;81.00
58239;BME280;44037;55.638;37.356;2023-12-22T00:12:25;96720.50;;;-0.41;80.91
58239;BME280;44037;55.638;37.356;2023-12-22T00:14:53;96718.69;;;-0.40;80.85
58239;BME280;44037;55.638;37.356;2023-12-22T00:17:21;96722.31;;;-0.56;81.04
58239;BME280;44037;55.638;37.356;2023-12-22T00:19:48;96724.88;;;-0.48;81.02
58239;BME280;44037;55.638;37.356;2023-12-22T00:22:16;96718.69;;;-0.40;80.96
58239;BME280;44037;55.638;37.356;2023-12-22T00:24:43;96725.03;;;-0.35;80.78
58239;BME280;44037;55.638;37.356;2023-12-22T00:27:10;96707.97;;;-0.39;80.21
58239;BME280;44037;55.638;37.356;2023-12-22T00:29:38;96712.06;;;-0.36;80.39
58239;BME280;44037;55.638;37.356;2023-12-22T00:32:07;96707.31;;;-0.41;80.22
58239;BME280;44037;55.638;37.356;2023-12-22T00:34:35;96700.59;;;-0.43;79.99
58239;BME280;44037;55.638;37.356;2023-12-22T00:37:03;96695.50;;;-0.45;80.12
58239;BME280;44037;55.638;37.356;2023-12-22T00:39:31;96701.03;;;-0.40;80.04
58239;BME280;44037;55.638;37.356;2023-12-22T00:41:59;96692.94;;;-0.38;79.84
58239;BME280;44037;55.638;37.356;2023-12-22T00:44:27;96690.38;;;-0.31;80.50
58239;BME280;44037;55.638;37.356;2023-12-22T00:46:56;96693.78;;;-0.38;79.81
58239;BME280;44037;55.638;37.356;2023-12-22T00:49:24;96690.69;;;-0.41;79.46
58239;BME280;44037;55.638;37.356;2023-12-22T00:51:52;96696.88;;;-0.49;79.43
58239;BME280;44037;55.638;37.356;2023-12-22T00:54:19;96693.59;;;-0.51;79.57
58239;BME280;44037;55.638;37.356;2023-12-22T00:56:46;96691.94;;;-0.52;79.67
58239;BME280;44037;55.638;37.356;2023-12-22T00:59:13;96691.69;;;-0.72;79.82
58239;BME280;44037;55.638;37.356;2023-12-22T01:01:40;96690.88;;;-0.73;79.99
58239;BME280;44037;55.638;37.356;2023-12-22T01:04:08;96692.16;;;-0.69;80.09
58239;BME280;44037;55.638;37.356;2023-12-22T01:06:38;96691.50;;;-0.71;79.87
58239;BME280;44037;55.638;37.356;2023-12-22T01:09:05;96689.41;;;-0.75;80.25
58239;BME280;44037;55.638;37.356;2023-12-22T01:11:33;96684.97;;;-0.75;80.60
58239;BME280;44037;55.638;37.356;2023-12-22T01:14:01;96688.69;;;-0.69;80.48
58239;BME280;44037;55.638;37.356;2023-12-22T01:16:28;96684.25;;;-0.69;80.14
58239;BME280;44037;55.638;37.356;2023-12-22T01:18:56;96696.13;;;-0.73;80.25
58239;BME280;44037;55.638;37.356;2023-12-22T01:21:23;96691.13;;;-0.68;80.53
58239;BME280;44037;55.638;37.356;2023-12-22T01:23:52;96694.16;;;-0.71;80.32
58239;BME280;44037;55.638;37.356;2023-12-22T01:26:20;96689.03;;;-0.57;80.71
58239;BME280;44037;55.638;37.356;2023-12-22T01:28:47;96681.50;;;-0.45;80.19
58239;BME280;44037;55.638;37.356;2023-12-22T01:31:14;96691.22;;;-0.46;79.82
58239;BME280;44037;55.638;37.356;2023-12-22T01:33:42;96682.31;;;-0.45;80.18
58239;BME280;44037;55.638;37.356;2023-12-22T01:36:09;96681.22;;;-0.36;79.67
58239;BME280;44037;55.638;37.356;2023-12-22T01:38:36;96675.94;;;-0.36;79.25
58239;BME280;44037;55.638;37.356;2023-12-22T01:41:05;96678.31;;;-0.41;79.13
58239;BME280;44037;55.638;37.356;2023-12-22T01:43:34;96676.31;;;-0.39;79.46
58239;BME280;44037;55.638;37.356;2023-12-22T01:46:02;96681.59;;;-0.39;79.35
58239;BME280;44037;55.638;37.356;2023-12-22T01:48:30;96670.22;;;-0.39;79.94
58239;BME280;44037;55.638;37.356;2023-12-22T01:50:59;96675.94;;;-0.36;80.34
58239;BME280;44037;55.638;37.356;2023-12-22T01:53:28;96677.44;;;-0.48;79.64
58239;BME280;44037;55.638;37.356;2023-12-22T01:55:58;96670.50;;;-0.49;79.53
58239;BME280;44037;55.638;37.356;2023-12-22T01:58:29;96675.78;;;-0.49;80.11
58239;BME280;44037;55.638;37.356;2023-12-22T02:00:57;96673.88;;;-0.55;79.85
58239;BME280;44037;55.638;37.356;2023-12-22T02:03:25;96671.25;;;-0.55;80.18
58239;BME280;44037;55.638;37.356;2023-12-22T02:05:53;96664.97;;;-0.54;80.03
58239;BME280;44037;55.638;37.356;2023-12-22T02:08:21;96670.25;;;-0.54;80.18
58239;BME280;44037;55.638;37.356;2023-12-22T02:10:50;96654.97;;;-0.59;79.95
58239;BME280;44037;55.638;37.356;2023-12-22T02:13:17;96651.53;;;-0.59;79.77
58239;BME280;44037;55.638;37.356;2023-12-22T02:15:48;96647.50;;;-0.55;79.78
58239;BME280;44037;55.638;37.356;2023-12-22T02:18:21;96646.13;;;-0.51;79.37
58239;BME280;44037;55.638;37.356;2023-12-22T02:20:49;96646.66;;;-0.41;79.92
58239;BME280;44037;55.638;37.356;2023-12-22T02:23:18;96641.84;;;-0.37;79.32
58239;BME280;44037;55.638;37.356;2023-12-22T02:25:45;96639.22;;;-0.37;78.78
58239;BME280;44037;55.638;37.356;2023-12-22T02:28:16;96645.88;;;-0.41;79.03
58239;BME280;44037;55.638;37.356;2023-12-22T02:30:51;96643.75;;;-0.31;79.41
58239;BME280;44037;55.638;37.356;2023-12-22T02:33:21;96635.25;;;-0.26;78.78
58239;BME280;44037;55.638;37.356;2023-12-22T02:35:51;96641.97;;;-0.24;nan
58239;BME280;44037;55.638;37.356;2023-12-22T02:38:20;96636.72;;;-0.24;78.44
58239;BME280;44037;55.638;37.356;2023-12-22T02:40:49;96636.38;;;-0.36;78.53
58239;BME280;44037;55.638;37.356;2023-12-22T02:43:16;96637.03;;;-0.33;78.78
58239;BME280;44037;55.638;37.356;2023-12-22T02:45:44;96637.13;;;-0.42;78.62
58239;BME280;44037;55.638;37.356;2023-12-22T02:48:11;96622.41;;;-0.51;78.79
58239;BME280;44037;55.638;37.356;2023-12-22T02:50:39;96619.25;;;-0.61;79.35
58239;BME280;44037;55.638;37.356;2023-12-22T02:53:06;96611.72;;;-0.64;79.38
58239;BME280;44037;55.638;37.356;2023-12-22T02:55:35;96609.69;;;-0.62;79.78
58239;BME280;44037;55.638;37.356;2023-12-22T02:58:03;96613.34;;;-0.63;79.36
58239;BME280;44037;55.638;37.356;2023-12-22T03:00:31;96610.72;;;-0.63;79.73
58239;BME280;44037;55.638;37.356;2023-12-22T03:02:58;96621.88;;;-0.61;79.79
58239;BME280;44037;55.638;37.356;2023-12-22T03:05:25;96620.09;;;-0.61;79.26
58239;BME280;44037;55.638;37.356;2023-12-22T03:15:38;96621.25;;;-0.63;79.35
58239;BME280;44037;55.638;37.356;2023-12-22T03:18:05;96617.25;;;-0.59;79.51
58239;BME280;44037;55.638;37.356;2023-12-22T03:20:32;96619.34;;;-0.70;79.02
58239;BME280;44037;55.638;37.356;2023-12-22T03:23:00;96616.47;;;-0.75;79.39
58239;BME280;44037;55.638;37.356;2023-12-22T03:25:27;96616.47;;;-0.75;80.20
58239;BME280;44037;55.638;37.356;2023-12-22T03:27:54;96616.72;;;-0.70;80.08
58239;BME280;44037;55.638;37.356;2023-12-22T03:30:22;96623.44;;;-0.67;79.03
58239;BME280;44037;55.638;37.356;2023-12-22T03:32:50;96613.91;;;-0.68;79.26
58239;BME280;44037;55.638;37.356;2023-12-22T03:35:18;96620.44;;;-0.64;79.28
58239;BME280;44037;55.638;37.356;2023-12-22T03:37:45;96618.44;;;-0.62;79.65
58239;BME280;44037;55.638;37.356;2023-12-22T03:40:13;96609.16;;;-0.58;79.23
58239;BME280;44037;55.638;37.356;2023-12-22T03:42:40;96602.25;;;-0.59;78.49
58239;BME280;44037;55.638;37.356;2023-12-22T03:45:08;96603.88;;;-0.58;78.45
58239;BME280;44037;55.638;37.356;2023-12-22T03:47:35;96600.91;;;-0.70;78.47
58239;BME280;44037;55.638;37.356;2023-12-22T03:50:05;96595.63;;;-0.70;78.76
58239;BME280;44037;55.638;37.356;2023-12-22T03:52:33;96593.63;;;-0.68;78.52
58239;BME280;44037;55.638;37.356;2023-12-22T03:55:00;96583.47;;;-0.71;78.43
58239;BME280;44037;55.638;37.356;2023-12-22T03:57:28;96583.28;;;-0.69;79.17
58239;BME280;44037;55.638;37.356;2023-12-22T03:59:55;96579.81;;;-0.70;78.66
58239;BME280;44037;55.638;37.356;2023-12-22T04:02:22;96592.00;;;-0.69;78.37
58239;BME280;44037;55.638;37.356;2023-12-22T04:04:50;96585.09;;;-0.70;77.90
58239;BME280;44037;55.638;37.356;2023-12-22T04:07:19;96574.28;;;-0.75;78.20
58239;BME280;44037;55.638;37.356;2023-12-22T04:09:46;96582.53;;;-0.78;78.45
58239;BME280;44037;55.638;37.356;2023-12-22T04:12:13;96574.75;;;-0.86;78.22
58239;BME280;44037;55.638;37.356;2023-12-22T04:14:41;96587.41;;;-0.81;78.36
58239;BME280;44037;55.638;37.356;2023-12-22T04:17:08;96575.75;;;-0.87;78.67
58239;BME280;44037;55.638;37.356;2023-12-22T04:19:36;96579.22;;;-0.87;79.17
58239;BME280;44037;55.638;37.356;2023-12-22T04:22:03;96568.22;;;-0.90;78.69
58239;BME280;44037;55.638;37.356;2023-12-22T04:24:32;96575.13;;;-0.89;78.07
58239;BME280;44037;55.638;37.356;2023-12-22T04:26:59;96574.38;;;-0.83;78.62
58239;BME280;44037;55.638;37.356;2023-12-22T04:29:27;96563.84;;;-0.83;77.85
58239;BME280;44037;55.638;37.356;2023-12-22T04:32:00;96560.22;;;-0.82;77.89
58239;BME280;44037;55.638;37.356;2023-12-22T04:34:28;96552.13;;;-0.80;77.78
58239;BME280;44037;55.638;37.356;2023-12-22T04:36:55;96561.84;;;-0.81;77.65
58239;BME280;44037;55.638;37.356;2023-12-22T04:39:22;96540.13;;;-0.83;78.02
58239;BME280;44037;55.638;37.356;2023-12-22T04:41:51;96545.31;;;-0.75;77.15
58239;BME280;44037;55.638;37.356;2023-12-22T04:44:19;96529.31;;;-0.88;77.32
58239;BME280;44037;55.638;37.356;2023-12-22T04:46:46;96534.72;;;-0.96;77.84
58239;BME280;44037;55.638;37.356;2023-12-22T04:49:14;96526.06;;;-0.90;77.65
58239;BME280;44037;55.638;37.356;2023-12-22T04:51:41;96536.22;;;-0.87;78.07
58239;BME280;44037;55.638;37.356;2023-12-22T04:54:08;96528.97;;;-0.85;77.75
58239;BME280;44037;55.638;37.356;2023-12-22T04:56:36;96526.25;;;-0.92;78.01
58239;BME280;44037;55.638;37.356;2023-12-22T04:59:04;96531.34;;;-0.90;77.93
58239;BME280;44037;55.638;37.356;2023-12-22T05:01:32;96533.63;;;-1.02;78.62
58239;BME280;44037;55.638;37.356;2023-12-22T05:03:59;96538.72;;;-1.01;78.24
58239;BME280;44037;55.638;37.356;2023-12-22T05:06:28;96539.34;;;-0.98;78.70
58239;BME280;44037;55.638;37.356;2023-12-22T05:08:55;96533.78;;;-1.04;78.08
58239;BME280;44037;55.638;37.356;2023-12-22T05:11:23;96536.69;;;-0.98;78.23
58239;BME280;44037;55.638;37.356;2023-12-22T05:13:50;96530.88;;;-0.94;78.96
58239;BME280;44037;55.638;37.356;2023-12-22T05:16:19;96542.50;;;-0.88;78.47
58239;BME280;44037;55.638;37.356;2023-12-22T05:18:47;96537.50;;;-0.83;78.20
58239;BME280;44037;55.638;37.356;2023-12-22T05:21:14;96542.22;;;-0.93;77.86
58239;BME280;44037;55.638;37.356;2023-12-22T05:23:41;96534.06;;;-0.98;78.39
58239;BME280;44037;55.638;37.356;2023-12-22T05:26:09;96532.72;;;-0.94;78.07
58239;BME280;44037;55.638;37.356;2023-12-22T05:28:36;96538.78;;;-0.94;78.33
58239;BME280;44037;55.638;37.356;2023-12-22T05:31:04;96545.88;;;-0.94;78.20
58239;BME280;44037;55.638;37.356;2023-12-22T05:33:35;96544.78;;;-1.00;78.58
58239;BME280;44037;55.638;37.356;2023-12-22T05:36:03;96544.50;;;-0.90;78.67
58239;BME280;44037;55.638;37.356;2023-12-22T05:38:31;96534.50;;;-0.80;78.68
58239;BME280;44037;55.638;37.356;2023-12-22T05:40:58;96535.03;;;-0.85;78.31
58239;BME280;44037;55.638;37.356;2023-12-22T05:43:25;96546.84;;;-0.80;78.24
58239;BME280;44037;55.638;37.356;2023-12-22T05:45:53;96544.72;;;-0.92;78.41
58239;BME280;44037;55.638;37.356;2023-12-22T05:48:20;96556.31;;;-1.01;79.18
58239;BME280;44037;55.638;37.356;2023-12-22T05:50:49;96539.84;;;-0.88;79.95
58239;BME280;44037;55.638;37.356;2023-12-22T05:53:16;96549.66;;;-0.82;78.46
58239;BME280;44037;55.638;37.356;2023-12-22T05:55:50;96539.78;;;-0.80;78.90
58239;BME280;44037;55.638;37.356;2023-12-22T05:58:17;96530.16;;;-0.88;79.10
58239;BME280;44037;55.638;37.356;2023-12-22T06:00:44;96539.84;;;-0.88;78.85
58239;BME280;44037;55.638;37.356;2023-12-22T06:03:12;96547.94;;;-0.75;78.91
58239;BME280;44037;55.638;37.356;2023-12-22T06:05:40;96541.75;;;-0.82;78.72
58239;BME280;44037;55.638;37.356;2023-12-22T06:08:09;96560.66;;;-0.93;78.27
58239;BME280;44037;55.638;37.356;2023-12-22T06:10:36;96545.88;;;-0.94;79.24
58239;BME280;44037;55.638;37.356;2023-12-22T06:13:04;96555.97;;;-0.98;79.04
58239;BME280;44037;55.638;37.356;2023-12-22T06:15:32;96552.22;;;-1.04;79.49
58239;BME280;44037;55.638;37.356;2023-12-22T06:17:59;96559.47;;;-0.91;80.05
58239;BME280;44037;55.638;37.356;2023-12-22T06:20:27;96549.59;;;-0.89;78.68
58239;BME280;44037;55.638;37.356;2023-12-22T06:22:54;96562.03;;;-0.97;79.01
58239;BME280;44037;55.638;37.356;2023-12-22T06:25:23;96561.25;;;-0.98;79.51
58239;BME280;44037;55.638;37.356;2023-12-22T06:27:50;96554.47;;;-0.86;79.03
58239;BME280;44037;55.638;37.356;2023-12-22T06:30:18;96559.94;;;-0.72;79.70
58239;BME280;44037;55.638;37.356;2023-12-22T06:32:50;96549.06;;;-0.62;79.10
58239;BME280;44037;55.638;37.356;2023-12-22T06:35:20;96550.91;;;-0.63;78.87
58239;BME280;44037;55.638;37.356;2023-12-22T06:38:20;96551.97;;;-0.57;78.44
58239;BME280;44037;55.638;37.356;2023-12-22T06:40:49;96553.50;;;-0.48;78.72
58239;BME280;44037;55.638;37.356;2023-12-22T06:43:16;96561.06;;;-0.60;77.51
58239;BME280;44037;55.638;37.356;2023-12-22T06:45:43;96554.06;;;-0.53;78.40
58239;BME280;44037;55.638;37.356;2023-12-22T06:48:11;96549.69;;;-0.45;77.21
58239;BME280;44037;55.638;37.356;2023-12-22T06:50:38;96561.41;;;-0.48;78.00
58239;BME280;44037;55.638;37.356;2023-12-22T06:53:06;96563.00;;;-0.32;78.51
58239;BME280;44037;55.638;37.356;2023-12-22T06:55:34;96557.03;;;-0.41;76.79
58239;BME280;44037;55.638;37.356;2023-12-22T06:58:03;96555.13;;;-0.47;78.23
58239;BME280;44037;55.638;37.356;2023-12-22T07:00:30;96566.38;;;-0.38;77.94
58239;BME280;44037;55.638;37.356;2023-12-22T07:02:58;96554.97;;;-0.45;76.91
58239;BME280;44037;55.638;37.356;2023-12-22T07:05:35;96567.22;;;-0.38;77.41
58239;BME280;44037;55.638;37.356;2023-12-22T07:08:04;96558.16;;;-0.28;76.63
58239;BME280;44037;55.638;37.356;2023-12-22T07:10:32;96542.44;;;-0.37;76.62
58239;BME280;44037;55.638;37.356;2023-12-22T07:13:00;96563.69;;;-0.45;76.64
58239;BME280;44037;55.638;37.356;2023-12-22T07:15:29;96544.97;;;-0.28;77.09
58239;BME280;44037;55.638;37.356;2023-12-22T07:17:56;96546.72;;;-0.14;76.01
58239;BME280;44037;55.638;37.356;2023-12-22T07:20:23;96548.81;;;-0.09;76.43
58239;BME280;44037;55.638;37.356;2023-12-22T07:22:51;96547.31;;;-0.40;75.71
58239;BME280;44037;55.638;37.356;2023-12-22T07:25:20;96553.31;;;-0.46;76.33
58239;BME280;44037;55.638;37.356;2023-12-22T07:27:47;96550.34;;;-0.37;77.20
58239;BME280;44037;55.638;37.356;2023-12-22T07:30:16;96546.66;;;-0.42;76.02
58239;BME280;44037;55.638;37.356;2023-12-22T07:32:45;96542.31;;;-0.50;76.42
58239;BME280;44037;55.638;37.356;2023-12-22T07:35:17;96539.44;;;-0.55;77.51
58239;BME280;44037;55.638;37.356;2023-12-22T07:37:45;96545.38;;;-0.68;77.02
58239;BME280;44037;55.638;37.356;2023-12-22T07:40:12;96543.44;;;-0.59;77.67
58239;BME280;44037;55.638;37.356;2023-12-22T07:42:40;96540.91;;;-0.68;76.81
58239;BME280;44037;55.638;37.356;2023-12-22T07:45:08;96545.00;;;-0.65;76.82
58239;BME280;44037;55.638;37.356;2023-12-22T07:47:35;96532.00;;;-0.66;77.36
58239;BME280;44037;55.638;37.356;2023-12-22T07:50:05;96530.19;;;-0.66;77.32
58239;BME280;44037;55.638;37.356;2023-12-22T07:52:34;96524.75;;;-0.64;77.13
58239;BME280;44037;55.638;37.356;2023-12-22T07:55:05;96527.13;;;-0.70;76.70
58239;BME280;44037;55.638;37.356;2023-12-22T07:57:33;96518.13;;;-0.75;76.78
58239;BME280;44037;55.638;37.356;2023-12-22T08:00:01;96533.16;;;-0.54;77.14
58239;BME280;44037;55.638;37.356;2023-12-22T08:02:30;96533.09;;;-0.61;76.22
58239;BME280;44037;55.638;37.356;2023-12-22T08:04:58;96523.09;;;-0.65;76.41
58239;BME280;44037;55.638;37.356;2023-12-22T08:07:27;96527.00;;;-0.61;76.16
58239;BME280;44037;55.638;37.356;2023-12-22T08:09:54;96520.59;;;-0.52;76.26
58239;BME280;44037;55.638;37.356;2023-12-22T08:12:21;96507.34;;;-0.59;76.42
58239;BME280;44037;55.638;37.356;2023-12-22T08:14:48;96508.00;;;-0.57;76.39
58239;BME280;44037;55.638;37.356;2023-12-22T08:17:16;96508.94;;;-0.43;75.97
58239;BME280;44037;55.638;37.356;2023-12-22T08:19:43;96494.47;;;-0.47;75.73
58239;BME280;44037;55.638;37.356;2023-12-22T08:22:10;96506.31;;;-0.43;75.10
58239;BME280;44037;55.638;37.356;2023-12-22T08:24:40;96494.41;;;-0.54;74.75
58239;BME280;44037;55.638;37.356;2023-12-22T08:27:08;96499.59;;;-0.45;74.95
58239;BME280;44037;55.638;37.356;2023-12-22T08:29:36;96498.66;;;-0.38;74.81
58239;BME280;44037;55.638;37.356;2023-12-22T08:32:06;96497.00;;;-0.39;74.38
58239;BME280;44037;55.638;37.356;2023-12-22T08:34:34;96488.59;;;-0.27;73.91
58239;BME280;44037;55.638;37.356;2023-12-22T08:37:01;96481.75;;;-0.22;74.14
58239;BME280;44037;55.638;37.356;2023-12-22T08:39:28;96479.78;;;-0.13;73.39
58239;BME280;44037;55.638;37.356;2023-12-22T08:41:58;96478.41;;;-0.09;73.07
58239;BME280;44037;55.638;37.356;2023-12-22T08:44:25;96482.94;;;-0.24;73.07
58239;BME280;44037;55.638;37.356;2023-12-22T08:46:53;96485.88;;;-0.34;73.33
58239;BME280;44037;55.638;37.356;2023-12-22T08:49:20;96478.22;;;-0.29;73.83
58239;BME280;44037;55.638;37.356;2023-12-22T08:51:48;96491.53;;;-0.15;74.14
58239;BME280;44037;55.638;37.356;2023-12-22T08:54:15;96471.47;;;-0.10;73.46
58239;BME280;44037;55.638;37.356;2023-12-22T08:56:42;96460.44;;;-0.20;72.25
58239;BME280;44037;55.638;37.356;2023-12-22T08:59:11;96481.66;;;-0.07;72.24
58239;BME280;44037;55.638;37.356;2023-12-22T09:01:38;96476.19;;;-0.05;71.99
58239;BME280;44037;55.638;37.356;2023-12-22T09:04:06;96490.38;;;-0.06;72.08
58239;BME280;44037;55.638;37.356;2023-12-22T09:06:34;96480.28;;;-0.03;72.07
58239;BME280;44037;55.638;37.356;2023-12-22T09:09:01;96482.16;;;0.04;71.94
58239;BME280;44037;55.638;37.356;2023-12-22T09:11:29;96478.88;;;0.02;71.55
58239;BME280;44037;55.638;37.356;2023-12-22T09:13:57;96485.19;;;0.07;71.28
58239;BME280;44037;55.638;37.356;2023-12-22T09:16:26;96474.72;;;0.14;71.28
58239;BME280;44037;55.638;37.356;2023-12-22T09:18:53;96486.31;;;0.20;70.81
58239;BME280;44037;55.638;37.356;2023-12-22T09:21:21;96482.03;;;0.19;70.84
58239;BME280;44037;55.638;37.356;2023-12-22T09:23:48;96468.28;;;0.23;70.46
58239;BME280;44037;55.638;37.356;2023-12-22T09:26:16;96476.47;;;0.35;70.67
58239;BME280;44037;55.638;37.356;2023-12-22T09:28:44;96475.22;;;0.31;70.49
58239;BME280;44037;55.638;37.356;2023-12-22T09:31:11;96468.75;;;0.34;69.73
58239;BME280;44037;55.638;37.356;2023-12-22T09:33:41;96459.78;;;0.35;70.68
58239;BME280;44037;55.638;37.356;2023-12-22T09:36:09;96453.09;;;0.32;69.77
58239;BME280;44037;55.638;37.356;2023-12-22T09:38:37;96461.06;;;0.39;69.48
58239;BME280;44037;55.638;37.356;2023-12-22T09:41:05;96455.41;;;0.48;69.81
58239;BME280;44037;55.638;37.356;2023-12-22T09:43:35;96467.22;;;0.53;68.75
58239;BME280;44037;55.638;37.356;2023-12-22T09:46:03;96466.81;;;0.49;69.53
58239;BME280;44037;55.638;37.356;2023-12-22T09:48:32;96461.44;;;0.36;69.18
58239;BME280;44037;55.638;37.356;2023-12-22T09:51:03;96474.16;;;0.60;68.80
58239;BME280;44037;55.638;37.356;2023-12-22T09:53:33;96465.16;;;0.48;68.87
58239;BME280;44037;55.638;37.356;2023-12-22T09:56:03;96461.59;;;0.62;68.94
58239;BME280;44037;55.638;37.356;2023-12-22T09:58:31;96457.47;;;0.53;68.44
58239;BME280;44037;55.638;37.356;2023-12-22T10:01:02;96455.84;;;0.52;68.87
58239;BME280;44037;55.638;37.356;2023-12-22T10:03:33;96450.09;;;0.42;69.00
58239;BME280;44037;55.638;37.356;2023-12-22T10:06:02;96444.59;;;0.37;69.11
58239;BME280;44037;55.638;37.356;2023-12-22T10:08:30;96454.34;;;0.36;68.50
58239;BME280;44037;55.638;37.356;2023-12-22T10:10:59;96450.75;;;0.51;69.16
58239;BME280;44037;55.638;37.356;2023-12-22T10:13:26;96445.69;;;0.49;68.20
58239;BME280;44037;55.638;37.356;2023-12-22T10:15:54;96438.91;;;0.40;68.33
58239;BME280;44037;55.638;37.356;2023-12-22T10:18:22;96436.44;;;0.31;69.06
58239;BME280;44037;55.638;37.356;2023-12-22T10:20:51;96441.59;;;0.46;68.68
58239;BME280;44037;55.638;37.356;2023-12-22T10:23:19;96429.00;;;0.48;68.72
58239;BME280;44037;55.638;37.356;2023-12-22T10:25:47;96433.84;;;0.45;68.88
58239;BME280;44037;55.638;37.356;2023-12-22T10:28:15;96430.25;;;0.53;68.83
58239;BME280;44037;55.638;37.356;2023-12-22T10:30:44;96429.41;;;0.45;68.46
58239;BME280;44037;55.638;37.356;2023-12-22T10:33:12;96424.91;;;0.39;68.76
58239;BME280;44037;55.638;37.356;2023-12-22T10:35:41;96421.16;;;0.27;68.51
58239;BME280;44037;55.638;37.356;2023-12-22T10:38:08;96423.44;;;0.30;68.66
58239;BME280;44037;55.638;37.356;2023-12-22T10:40:38;96420.56;;;0.25;69.04
58239;BME280;44037;55.638;37.356;2023-12-22T10:43:06;96423.19;;;0.18;69.68
58239;BME280;44037;55.638;37.356;2023-12-22T10:45:33;96423.66;;;0.28;69.79
58239;BME280;44037;55.638;37.356;2023-12-22T10:48:00;96415.69;;;0.22;69.33
58239;BME280;44037;55.638;37.356;2023-12-22T10:50:28;96414.63;;;0.16;69.42
58239;BME280;44037;55.638;37.356;2023-12-22T10:52:55;96417.91;;;0.18;69.75
58239;BME280;44037;55.638;37.356;2023-12-22T10:55:23;96413.38;;;0.12;69.88
58239;BME280;44037;55.638;37.356;2023-12-22T10:57:52;96406.09;;;0.14;69.82
58239;BME280;44037;55.638;37.356;2023-12-22T11:00:20;96410.97;;;0.17;69.62
58239;BME280;44037;55.638;37.356;2023-12-22T11:02:48;96390.03;;;0.09;69.91
58239;BME280;44037;55.638;37.356;2023-12-22T11:05:17;96395.16;;;0.17;69.83
58239;BME280;44037;55.638;37.356;2023-12-22T11:07:48;96394.63;;;-0.07;70.00
58239;BME280;44037;55.638;37.356;2023-12-22T11:10:19;96393.22;;;-0.03;70.14
58239;BME280;44037;55.638;37.356;2023-12-22T11:12:47;96384.53;;;0.04;70.00
58239;BME280;44037;55.638;37.356;2023-12-22T11:15:17;96382.06;;;0.02;70.47
58239;BME280;44037;55.638;37.356;2023-12-22T11:17:46;96378.41;;;0.03;69.85
58239;BME280;44037;55.638;37.356;2023-12-22T11:20:15;96373.75;;;-0.02;69.96
58239;BME280;44037;55.638;37.356;2023-12-22T11:22:43;96376.72;;;-0.11;71.01
58239;BME280;44037;55.638;37.356;2023-12-22T11:25:12;96376.56;;;-0.03;70.81
58239;BME280;44037;55.638;37.356;2023-12-22T11:27:43;96372.25;;;-0.11;71.02
58239;BME280;44037;55.638;37.356;2023-12-22T11:30:11;96379.63;;;0.01;71.89
58239;BME280;44037;55.638;37.356;2023-12-22T11:32:41;96376.38;;;-0.02;70.68
58239;BME280;44037;55.638;37.356;2023-12-22T11:35:09;96364.16;;;-0.09;71.26
58239;BME280;44037;55.638;37.356;2023-12-22T11:37:37;96371.00;;;-0.15;71.99
58239;BME280;44037;55.638;37.356;2023-12-22T11:40:07;96374.56;;;-0.29;71.85
58239;BME280;44037;55.638;37.356;2023-12-22T11:42:38;96372.44;;;-0.41;72.45
58239;BME280;44037;55.638;37.356;2023-12-22T11:45:09;96370.94;;;-0.28;71.82
58239;BME280;44037;55.638;37.356;2023-12-22T11:47:38;96367.41;;;-0.36;71.66
58239;BME280;44037;55.638;37.356;2023-12-22T11:50:10;96362.16;;;-0.36;72.43
58239;BME280;44037;55.638;37.356;2023-12-22T11:52:38;96364.75;;;-0.42;72.44
58239;BME280;44037;55.638;37.356;2023-12-22T11:55:06;96367.63;;;-0.37;72.35
58239;BME280;44037;55.638;37.356;2023-12-22T11:57:37;96375.19;;;-0.56;72.65
58239;BME280;44037;55.638;37.356;2023-12-22T12:00:09;96367.03;;;-0.61;73.00
58239;BME280;44037;55.638;37.356;2023-12-22T12:02:39;96375.19;;;-0.56;73.40
58239;BME280;44037;55.638;37.356;2023-12-22T12:05:09;96371.47;;;-0.61;73.65
58239;BME280;44037;55.638;37.356;2023-12-22T12:07:41;96360.56;;;-0.58;74.64
58239;BME280;44037;55.638;37.356;2023-12-22T12:10:11;96361.94;;;-0.62;73.59
58239;BME280;44037;55.638;37.356;2023-12-22T12:12:40;96368.25;;;-0.63;73.94
58239;BME280;44037;55.638;37.356;2023-12-22T12:15:13;96379.28;;;-0.75;74.20
58239;BME280;44037;55.638;37.356;2023-12-22T12:17:43;96372.19;;;-0.74;74.30
58239;BME280;44037;55.638;37.356;2023-12-22T12:20:12;96364.09;;;-0.73;74.61
58239;BME280;44037;55.638;37.356;2023-12-22T12:22:42;96347.78;;;-0.83;75.07
58239;BME280;44037;55.638;37.356;2023-12-22T12:25:10;96353.28;;;-0.78;74.32
58239;BME280;44037;55.638;37.356;2023-12-22T12:27:38;96350.16;;;-0.88;74.50
58239;BME280;44037;55.638;37.356;2023-12-22T12:30:09;96349.56;;;-0.90;75.15
58239;BME280;44037;55.638;37.356;2023-12-22T12:32:41;96350.81;;;-0.86;75.02
58239;BME280;44037;55.638;37.356;2023-12-22T12:35:12;96340.50;;;-0.81;76.63
58239;BME280;44037;55.638;37.356;2023-12-22T12:37:40;96350.56;;;-0.91;74.96
58239;BME280;44037;55.638;37.356;2023-12-22T12:40:08;96344.91;;;-0.88;74.91
58239;BME280;44037;55.638;37.356;2023-12-22T12:42:38;96348.38;;;-0.88;75.47
58239;BME280;44037;55.638;37.356;2023-12-22T12:45:06;96340.25;;;-0.86;75.12
58239;BME280;44037;55.638;37.356;2023-12-22T12:47:34;96341.25;;;-0.87;75.54
58239;BME280;44037;55.638;37.356;2023-12-22T12:50:02;96337.63;;;-0.86;75.90
58239;BME280;44037;55.638;37.356;2023-12-22T12:52:34;96339.63;;;-0.88;75.66
58239;BME280;44037;55.638;37.356;2023-12-22T12:55:01;96340.66;;;-0.89;75.85
58239;BME280;44037;55.638;37.356;2023-12-22T12:57:30;96341.66;;;-0.90;75.87
58239;BME280;44037;55.638;37.356;2023-12-22T12:59:57;96342.16;;;-0.80;75.73
58239;BME280;44037;55.638;37.356;2023-12-22T13:02:24;96342.91;;;-0.86;76.28
58239;BME280;44037;55.638;37.356;2023-12-22T13:04:53;96346.03;;;-0.76;76.21